createdAt,value
2022-07-26T00:00:19.390Z,98.66
2022-07-26T00:03:04.144Z,98.80
2022-07-26T00:05:49.266Z,98.83
2022-07-26T00:08:34.151Z,98.84
2022-07-26T00:11:19.972Z,98.75
2022-07-26T00:14:07.810Z,98.88
2022-07-26T00:16:53.323Z,98.83
2022-07-26T00:19:38.676Z,98.78
2022-07-26T00:22:35.444Z,98.82
2022-07-26T00:25:20.918Z,98.83
2022-07-26T00:28:06.009Z,98.85
2022-07-26T00:30:51.597Z,98.78
2022-07-26T00:33:36.965Z,98.79
2022-07-26T00:36:22.027Z,98.84
2022-07-26T00:39:07.179Z,98.95
2022-07-26T00:41:52.608Z,99.21
2022-07-26T00:44:43.624Z,99.10
2022-07-26T00:47:30.845Z,99.09
2022-07-26T00:50:18.177Z,99.33
2022-07-26T00:53:03.148Z,99.45
2022-07-26T00:55:49.715Z,99.53
2022-07-26T00:58:34.712Z,99.56
2022-07-26T01:01:19.702Z,99.50
2022-07-26T01:04:04.903Z,99.47
2022-07-26T01:06:50.690Z,99.60
2022-07-26T01:09:36.140Z,99.53
2022-07-26T01:12:21.056Z,99.54
2022-07-26T01:15:07.404Z,99.33
2022-07-26T01:17:52.613Z,99.55
2022-07-26T01:20:37.768Z,99.41
2022-07-26T01:23:22.557Z,99.68
2022-07-26T01:26:08.026Z,99.65
2022-07-26T01:28:53.996Z,99.54
2022-07-26T01:31:39.382Z,99.46
2022-07-26T01:34:24.526Z,99.70
2022-07-26T01:37:09.635Z,99.63
2022-07-26T01:39:54.467Z,99.64
2022-07-26T01:42:40.860Z,99.28
2022-07-26T01:45:25.828Z,99.50
2022-07-26T01:48:11.035Z,99.18
2022-07-26T01:50:55.842Z,99.49
2022-07-26T01:53:40.872Z,99.60
2022-07-26T01:56:25.746Z,99.66
2022-07-26T01:59:10.952Z,99.43
2022-07-26T02:01:55.928Z,99.49
2022-07-26T02:04:58.864Z,99.21
2022-07-26T02:07:44.739Z,99.40
2022-07-26T02:10:49.071Z,99.30
2022-07-26T02:13:36.310Z,99.34
2022-07-26T02:16:21.761Z,99.50
2022-07-26T02:19:07.313Z,99.32
2022-07-26T02:21:52.475Z,99.43
2022-07-26T02:24:37.658Z,99.48
2022-07-26T02:27:22.574Z,99.28
2022-07-26T02:30:08.006Z,99.44
2022-07-26T02:32:53.281Z,99.58
2022-07-26T02:35:38.903Z,99.71
2022-07-26T02:38:24.596Z,99.75
2022-07-26T02:41:10.298Z,99.83
2022-07-26T02:43:55.367Z,99.89
2022-07-26T02:46:40.507Z,99.93
2022-07-26T02:49:25.173Z,99.91
2022-07-26T02:52:11.004Z,99.99
2022-07-26T02:54:55.681Z,100.00
2022-07-26T02:57:45.557Z,99.87
2022-07-26T03:00:31.884Z,99.97
2022-07-26T03:03:16.643Z,99.99
2022-07-26T03:06:01.712Z,99.34
2022-07-26T03:08:47.962Z,98.83
2022-07-26T03:11:32.450Z,98.28
2022-07-26T03:14:17.500Z,97.28
2022-07-26T03:17:02.572Z,96.37
2022-07-26T03:19:47.542Z,95.31
2022-07-26T03:22:32.345Z,94.20
2022-07-26T03:25:17.325Z,93.62
2022-07-26T03:28:02.296Z,92.52
2022-07-26T03:30:47.265Z,91.80
2022-07-26T03:33:32.146Z,91.21
2022-07-26T03:36:17.374Z,90.54
2022-07-26T03:39:02.944Z,90.23
2022-07-26T03:41:47.480Z,89.56
2022-07-26T03:44:32.492Z,86.45
2022-07-26T03:47:17.309Z,84.50
2022-07-26T03:50:04.453Z,84.00
2022-07-26T03:52:49.553Z,83.26
2022-07-26T03:55:54.531Z,82.59
2022-07-26T03:58:39.665Z,83.00
2022-07-26T04:01:25.178Z,81.90
2022-07-26T04:04:15.281Z,80.57
2022-07-26T04:07:03.178Z,80.59
2022-07-26T04:09:48.782Z,78.75
2022-07-26T04:12:33.566Z,77.35
2022-07-26T04:15:20.673Z,76.17
2022-07-26T04:18:06.141Z,75.00
2022-07-26T04:20:51.405Z,74.12
2022-07-26T04:23:36.408Z,73.06
2022-07-26T04:26:21.644Z,72.28
2022-07-26T04:29:07.759Z,71.13
2022-07-26T04:31:54.257Z,70.20
2022-07-26T04:34:39.177Z,69.11
2022-07-26T04:37:24.283Z,68.16
2022-07-26T04:40:10.736Z,68.09
2022-07-26T04:42:57.596Z,66.55
2022-07-26T04:45:44.954Z,64.06
2022-07-26T04:48:30.197Z,63.19
2022-07-26T04:51:15.032Z,62.02
2022-07-26T04:53:59.984Z,61.38
2022-07-26T04:56:45.458Z,60.84
2022-07-26T04:59:32.782Z,59.65
2022-07-26T05:02:18.016Z,60.28
2022-07-26T05:05:04.549Z,60.34
2022-07-26T05:07:55.143Z,61.12
2022-07-26T05:10:39.806Z,61.32
2022-07-26T05:13:29.717Z,60.64
2022-07-26T05:16:16.088Z,60.09
2022-07-26T05:19:01.535Z,59.61
2022-07-26T05:21:46.434Z,59.48
2022-07-26T05:24:31.465Z,58.82
2022-07-26T05:27:19.893Z,57.68
2022-07-26T05:30:05.134Z,57.16
2022-07-26T05:32:50.485Z,56.69
2022-07-26T05:35:35.329Z,55.53
2022-07-26T05:38:20.278Z,55.38
2022-07-26T05:41:05.502Z,55.08
2022-07-26T05:43:51.264Z,54.48
2022-07-26T05:46:39.233Z,54.49
2022-07-26T05:49:25.804Z,55.06
2022-07-26T05:52:11.095Z,54.93
2022-07-26T05:54:56.071Z,54.03
2022-07-26T05:57:46.943Z,54.22
2022-07-26T06:00:32.208Z,54.42
2022-07-26T06:03:23.032Z,53.69
2022-07-26T06:06:08.089Z,53.35
2022-07-26T06:08:53.668Z,53.20
2022-07-26T06:11:39.301Z,53.06
2022-07-26T06:14:24.656Z,52.57
2022-07-26T06:17:10.371Z,52.66
2022-07-26T06:19:56.505Z,52.84
2022-07-26T06:22:41.372Z,52.07
2022-07-26T06:25:26.998Z,51.96
2022-07-26T06:28:12.233Z,51.65
2022-07-26T06:30:57.337Z,51.42
2022-07-26T06:33:42.327Z,51.34
2022-07-26T06:36:30.457Z,50.96
2022-07-26T06:39:32.104Z,50.21
2022-07-26T06:42:17.147Z,50.83
2022-07-26T06:45:05.394Z,50.58
2022-07-26T06:47:50.350Z,49.90
2022-07-26T06:50:35.301Z,49.40
2022-07-26T06:53:20.526Z,49.79
2022-07-26T06:56:05.780Z,48.81
2022-07-26T06:58:51.198Z,47.57
2022-07-26T07:01:51.398Z,47.45
2022-07-26T07:04:41.689Z,47.26
2022-07-26T07:07:26.770Z,47.06
2022-07-26T07:10:14.525Z,47.48
2022-07-26T07:13:02.548Z,46.50
2022-07-26T07:15:48.270Z,45.72
2022-07-26T07:18:33.803Z,45.62
2022-07-26T07:21:18.380Z,45.25
2022-07-26T07:24:03.621Z,45.10
2022-07-26T07:26:48.749Z,43.22
2022-07-26T07:29:36.003Z,42.73
2022-07-26T07:32:21.152Z,41.48
2022-07-26T07:35:12.742Z,40.44
2022-07-26T07:37:58.096Z,39.92
2022-07-26T07:40:43.161Z,39.41
2022-07-26T07:43:28.161Z,38.80
2022-07-26T07:46:13.432Z,38.01
2022-07-26T07:49:01.569Z,38.11
2022-07-26T07:51:46.719Z,39.32
2022-07-26T07:54:31.793Z,40.04
2022-07-26T07:57:17.306Z,40.10
2022-07-26T08:00:05.026Z,40.13
2022-07-26T08:02:56.405Z,38.70
2022-07-26T08:05:41.464Z,38.85
2022-07-26T08:08:27.221Z,36.95
2022-07-26T08:11:12.780Z,36.44
2022-07-26T08:13:58.682Z,35.54
2022-07-26T08:16:44.281Z,36.68
2022-07-26T08:19:40.807Z,38.23
2022-07-26T08:22:27.273Z,37.67
2022-07-26T08:25:12.240Z,36.21
2022-07-26T08:28:04.312Z,37.91
2022-07-26T08:30:49.073Z,36.83
2022-07-26T08:33:34.327Z,37.52
2022-07-26T08:36:19.232Z,39.16
2022-07-26T08:39:04.522Z,39.00
2022-07-26T08:41:49.204Z,39.84
2022-07-26T08:44:33.990Z,39.73
2022-07-26T08:47:35.370Z,38.80
2022-07-26T08:50:26.805Z,37.01
2022-07-26T08:53:12.475Z,37.36
2022-07-26T08:56:06.949Z,36.95
2022-07-26T08:58:52.777Z,36.08
2022-07-26T09:01:54.457Z,34.94
2022-07-26T09:04:45.753Z,34.21
2022-07-26T09:07:33.211Z,33.91
2022-07-26T09:10:18.428Z,33.51
2022-07-26T09:13:03.410Z,33.00
2022-07-26T09:16:07.594Z,32.55
2022-07-26T09:18:53.621Z,32.25
2022-07-26T09:21:38.759Z,33.21
2022-07-26T09:24:38.183Z,34.35
2022-07-26T09:27:27.967Z,34.20
2022-07-26T09:30:13.661Z,34.63
2022-07-26T09:33:02.361Z,34.10
2022-07-26T09:36:05.613Z,32.51
2022-07-26T09:38:53.133Z,31.43
2022-07-26T09:41:38.046Z,33.97
2022-07-26T09:44:25.346Z,33.14
2022-07-26T09:47:10.025Z,32.37
2022-07-26T09:50:12.196Z,32.51
2022-07-26T09:53:00.143Z,31.55
2022-07-26T09:55:45.321Z,34.25
2022-07-26T09:58:31.173Z,32.36
2022-07-26T10:01:16.072Z,32.21
2022-07-26T10:04:03.092Z,31.73
2022-07-26T10:06:49.026Z,32.00
2022-07-26T10:09:42.253Z,32.26
2022-07-26T10:12:30.858Z,30.50
2022-07-26T10:15:37.609Z,29.04
2022-07-26T10:18:38.426Z,29.48
2022-07-26T10:21:26.223Z,28.29
2022-07-26T10:24:28.708Z,30.65
2022-07-26T10:27:38.692Z,30.75
2022-07-26T10:30:33.310Z,32.05
2022-07-26T10:33:24.571Z,31.61
2022-07-26T10:36:22.602Z,31.43
2022-07-26T10:39:15.822Z,30.57
2022-07-26T10:42:03.258Z,29.04
2022-07-26T10:44:49.095Z,30.40
2022-07-26T10:47:35.467Z,28.55
2022-07-26T10:50:33.011Z,28.09
2022-07-26T10:53:26.771Z,27.31
2022-07-26T10:56:11.790Z,27.57
2022-07-26T10:58:57.220Z,27.22
2022-07-26T11:01:43.084Z,28.19
2022-07-26T11:04:28.313Z,27.39
2022-07-26T11:07:13.355Z,27.50
2022-07-26T11:09:59.705Z,26.91
2022-07-26T11:12:44.699Z,28.09
2022-07-26T11:15:30.365Z,26.47
2022-07-26T11:18:31.871Z,27.01
2022-07-26T11:21:18.184Z,26.30
2022-07-26T11:24:03.448Z,26.23
2022-07-26T11:26:48.618Z,25.71
2022-07-26T11:29:38.755Z,24.40
2022-07-26T11:32:25.855Z,24.92
2022-07-26T11:35:11.436Z,25.08
2022-07-26T11:38:07.792Z,26.45
2022-07-26T11:40:56.494Z,26.22
2022-07-26T11:43:42.341Z,25.18
2022-07-26T11:46:35.661Z,23.81
2022-07-26T11:49:41.581Z,23.69
2022-07-26T11:52:30.996Z,24.36
2022-07-26T11:55:25.670Z,23.60
2022-07-26T11:58:10.336Z,22.58
2022-07-26T12:00:55.309Z,22.80
2022-07-26T12:03:42.636Z,22.29
2022-07-26T12:06:28.574Z,22.40
2022-07-26T12:09:31.251Z,23.42
2022-07-26T12:12:26.924Z,24.22
2022-07-26T12:15:15.006Z,22.62
2022-07-26T12:18:00.165Z,23.95
2022-07-26T12:21:03.689Z,24.84
2022-07-26T12:23:50.542Z,24.43
2022-07-26T12:26:36.294Z,26.16
2022-07-26T12:29:29.405Z,26.69
2022-07-26T12:32:23.076Z,26.12
2022-07-26T12:35:15.107Z,27.26
2022-07-26T12:38:01.340Z,24.99
2022-07-26T12:40:46.917Z,24.53
2022-07-26T12:43:42.553Z,24.59
2022-07-26T12:46:34.711Z,22.30
2022-07-26T12:49:19.879Z,22.64
2022-07-26T12:52:04.932Z,22.47
2022-07-26T12:54:52.175Z,22.16
2022-07-26T12:57:37.195Z,21.13
2022-07-26T13:00:22.549Z,22.64
2022-07-26T13:03:07.634Z,23.07
2022-07-26T13:05:52.646Z,22.67
2022-07-26T13:08:37.894Z,24.33
2022-07-26T13:11:23.089Z,24.25
2022-07-26T13:14:08.532Z,23.98
2022-07-26T13:16:54.056Z,23.34
2022-07-26T13:19:39.418Z,23.52
2022-07-26T13:22:24.795Z,24.36
2022-07-26T13:25:09.691Z,26.20
2022-07-26T13:27:56.161Z,25.43
2022-07-26T13:30:43.292Z,25.09
2022-07-26T13:33:28.293Z,24.15
2022-07-26T13:36:13.304Z,24.26
2022-07-26T13:38:58.581Z,22.46
2022-07-26T13:41:43.285Z,22.99
2022-07-26T13:44:28.722Z,21.92
2022-07-26T13:47:13.664Z,22.47
2022-07-26T13:49:58.582Z,22.04
2022-07-26T13:52:43.551Z,23.21
2022-07-26T13:55:28.494Z,22.66
2022-07-26T13:58:13.473Z,21.64
2022-07-26T14:00:58.956Z,21.64
2022-07-26T14:03:43.873Z,22.31
2022-07-26T14:06:28.857Z,23.57
2022-07-26T14:09:14.857Z,24.03
2022-07-26T14:11:59.832Z,22.59
2022-07-26T14:14:44.943Z,22.66
2022-07-26T14:17:29.850Z,21.69
2022-07-26T14:20:16.433Z,20.93
2022-07-26T14:23:01.759Z,20.38
2022-07-26T14:25:47.105Z,19.78
2022-07-26T14:28:32.521Z,20.12
2022-07-26T14:31:18.495Z,20.55
2022-07-26T14:34:03.130Z,20.94
2022-07-26T14:36:48.020Z,20.88
2022-07-26T14:39:36.104Z,20.74
2022-07-26T14:42:21.355Z,21.73
2022-07-26T14:45:07.853Z,22.67
2022-07-26T14:47:53.368Z,22.07
2022-07-26T14:51:07.266Z,22.42
2022-07-26T14:53:44.136Z,22.51
2022-07-26T14:56:29.537Z,21.95
2022-07-26T14:59:14.674Z,22.84
2022-07-26T15:02:05.274Z,22.65
2022-07-26T15:04:51.039Z,23.52
2022-07-26T15:07:35.960Z,22.72
2022-07-26T15:10:28.644Z,22.45
2022-07-26T15:13:14.668Z,21.20
2022-07-26T15:15:59.641Z,20.39
2022-07-26T15:18:44.777Z,20.69
2022-07-26T15:21:29.841Z,20.50
2022-07-26T15:24:14.990Z,21.68
2022-07-26T15:27:00.236Z,21.94
2022-07-26T15:29:47.380Z,21.20
2022-07-26T15:32:33.771Z,20.94
2022-07-26T15:35:18.656Z,20.44
2022-07-26T15:38:03.641Z,20.96
2022-07-26T15:40:49.037Z,21.69
2022-07-26T15:43:44.194Z,22.34
2022-07-26T15:46:33.869Z,21.17
2022-07-26T15:49:19.113Z,20.81
2022-07-26T15:52:05.375Z,21.06
2022-07-26T15:54:52.231Z,21.21
2022-07-26T15:57:38.323Z,21.95
2022-07-26T16:00:24.018Z,22.17
2022-07-26T16:03:11.937Z,22.34
2022-07-26T16:05:56.976Z,22.70
2022-07-26T16:08:59.013Z,21.99
2022-07-26T16:11:48.422Z,22.19
2022-07-26T16:14:33.831Z,21.85
2022-07-26T16:17:18.446Z,21.82
2022-07-26T16:20:04.614Z,22.23
2022-07-26T16:22:49.425Z,22.71
2022-07-26T16:25:34.277Z,22.52
2022-07-26T16:28:19.284Z,24.00
2022-07-26T16:31:04.579Z,25.94
2022-07-26T16:33:49.789Z,26.34
2022-07-26T16:36:35.273Z,26.38
2022-07-26T16:39:20.365Z,25.66
2022-07-26T16:42:07.235Z,25.50
2022-07-26T16:44:52.780Z,25.29
2022-07-26T16:47:37.975Z,25.07
2022-07-26T16:50:27.379Z,25.52
2022-07-26T16:53:13.406Z,26.38
2022-07-26T16:55:58.422Z,27.38
2022-07-26T16:58:44.678Z,28.94
2022-07-26T17:01:30.152Z,31.74
2022-07-26T17:04:16.028Z,34.55
2022-07-26T17:07:24.441Z,37.62
2022-07-26T17:10:08.500Z,40.61
2022-07-26T17:12:54.021Z,42.28
2022-07-26T17:15:39.009Z,44.57
2022-07-26T17:18:24.548Z,46.77
2022-07-26T17:21:09.684Z,48.62
2022-07-26T17:23:54.484Z,50.54
2022-07-26T17:26:39.625Z,52.40
2022-07-26T17:29:24.977Z,53.76
2022-07-26T17:32:10.428Z,55.05
2022-07-26T17:34:55.267Z,56.13
2022-07-26T17:37:40.320Z,56.94
2022-07-26T17:40:25.889Z,58.21
2022-07-26T17:43:12.192Z,59.51
2022-07-26T17:45:57.149Z,60.79
2022-07-26T17:48:44.861Z,61.83
2022-07-26T17:51:30.046Z,62.80
2022-07-26T17:54:15.204Z,63.95
2022-07-26T17:57:00.094Z,65.08
2022-07-26T17:59:45.221Z,66.51
2022-07-26T18:02:30.044Z,67.43
2022-07-26T18:05:15.344Z,68.42
2022-07-26T18:08:00.722Z,69.29
2022-07-26T18:10:50.813Z,69.80
2022-07-26T18:13:37.833Z,70.46
2022-07-26T18:16:22.838Z,71.74
2022-07-26T18:19:08.209Z,72.69
2022-07-26T18:21:53.352Z,73.82
2022-07-26T18:24:38.989Z,73.93
2022-07-26T18:27:27.392Z,74.24
2022-07-26T18:30:12.951Z,75.21
2022-07-26T18:32:59.244Z,76.08
2022-07-26T18:35:44.050Z,76.31
2022-07-26T18:38:29.061Z,76.76
2022-07-26T18:41:14.119Z,76.26
2022-07-26T18:43:59.212Z,76.97
2022-07-26T18:46:44.298Z,76.88
2022-07-26T18:49:31.642Z,76.51
2022-07-26T18:52:16.818Z,76.73
2022-07-26T18:55:14.159Z,75.66
2022-07-26T18:58:03.226Z,76.47
2022-07-26T19:00:51.758Z,75.87
2022-07-26T19:03:37.252Z,75.14
2022-07-26T19:06:22.430Z,76.18
2022-07-26T19:09:07.729Z,75.87
2022-07-26T19:11:54.302Z,75.89
2022-07-26T19:14:39.144Z,76.17
2022-07-26T19:17:24.118Z,76.02
2022-07-26T19:20:10.063Z,75.98
2022-07-26T19:22:55.400Z,75.41
2022-07-26T19:25:40.929Z,74.98
2022-07-26T19:28:25.886Z,74.95
2022-07-26T19:31:10.857Z,74.97
2022-07-26T19:33:55.777Z,74.78
2022-07-26T19:36:41.249Z,75.38
2022-07-26T19:39:26.307Z,75.67
2022-07-26T19:42:11.078Z,75.92
2022-07-26T19:44:56.545Z,75.98
2022-07-26T19:47:41.115Z,75.61
2022-07-26T19:50:26.208Z,75.52
2022-07-26T19:53:11.205Z,75.56
2022-07-26T19:55:56.165Z,75.53
2022-07-26T19:58:41.306Z,75.81
2022-07-26T20:01:27.722Z,75.36
2022-07-26T20:04:12.680Z,74.96
2022-07-26T20:06:57.647Z,75.48
2022-07-26T20:09:42.595Z,75.50
2022-07-26T20:12:28.132Z,75.61
2022-07-26T20:15:13.880Z,76.08
2022-07-26T20:17:58.994Z,75.69
2022-07-26T20:20:43.982Z,75.73
2022-07-26T20:23:28.985Z,75.69
2022-07-26T20:26:14.071Z,75.88
2022-07-26T20:28:59.911Z,76.03
2022-07-26T20:31:45.137Z,76.21
2022-07-26T20:34:29.977Z,76.25
2022-07-26T20:37:14.833Z,76.08
2022-07-26T20:39:59.790Z,76.05
2022-07-26T20:42:47.478Z,76.08
2022-07-26T20:45:32.937Z,76.27
2022-07-26T20:48:17.734Z,76.26
2022-07-26T20:51:07.624Z,76.53
2022-07-26T20:53:59.063Z,76.43
2022-07-26T20:56:44.260Z,76.05
2022-07-26T20:59:29.314Z,75.97
2022-07-26T21:02:14.321Z,76.05
2022-07-26T21:04:59.862Z,76.31
2022-07-26T21:07:55.960Z,76.04
2022-07-26T21:10:45.458Z,76.80
2022-07-26T21:13:33.484Z,76.88
2022-07-26T21:16:18.374Z,76.92
2022-07-26T21:19:04.952Z,77.09
2022-07-26T21:21:49.803Z,77.05
2022-07-26T21:24:35.427Z,77.50
2022-07-26T21:27:20.290Z,77.05
2022-07-26T21:30:06.357Z,76.99
2022-07-26T21:32:51.436Z,77.00
2022-07-26T21:35:36.741Z,76.88
2022-07-26T21:38:21.724Z,76.99
2022-07-26T21:41:06.869Z,77.60
2022-07-26T21:43:51.750Z,77.75
2022-07-26T21:46:36.884Z,77.84
2022-07-26T21:49:21.898Z,77.93
2022-07-26T21:52:06.788Z,78.29
2022-07-26T21:54:51.681Z,78.54
2022-07-26T21:57:36.935Z,78.76
2022-07-26T22:00:21.800Z,79.19
2022-07-26T22:03:07.134Z,79.45
2022-07-26T22:05:52.133Z,79.69
2022-07-26T22:08:39.333Z,79.80
2022-07-26T22:11:24.701Z,79.86
2022-07-26T22:14:09.795Z,80.43
2022-07-26T22:16:54.761Z,80.75
2022-07-26T22:19:39.691Z,81.07
2022-07-26T22:22:24.882Z,81.45
2022-07-26T22:25:09.892Z,81.59
2022-07-26T22:27:55.806Z,81.92
2022-07-26T22:30:41.312Z,82.25
2022-07-26T22:33:26.875Z,82.58
2022-07-26T22:36:12.199Z,82.64
2022-07-26T22:38:57.046Z,82.85
2022-07-26T22:42:12.590Z,83.01
2022-07-26T22:44:47.307Z,83.47
2022-07-26T22:47:32.221Z,83.58
2022-07-26T22:50:17.185Z,83.47
2022-07-26T22:53:02.980Z,83.75
2022-07-26T22:55:48.143Z,83.65
2022-07-26T22:58:33.140Z,83.61
2022-07-26T23:01:19.198Z,83.52
2022-07-26T23:04:06.221Z,83.47
2022-07-26T23:06:52.745Z,83.26
2022-07-26T23:09:39.840Z,83.06
2022-07-26T23:12:24.960Z,82.50
2022-07-26T23:15:10.914Z,82.10
2022-07-26T23:17:55.773Z,82.23
2022-07-26T23:20:42.158Z,82.62
2022-07-26T23:23:29.547Z,83.09
2022-07-26T23:26:15.016Z,83.83
2022-07-26T23:29:00.141Z,84.73
2022-07-26T23:31:45.160Z,85.16
2022-07-26T23:34:30.091Z,85.68
2022-07-26T23:37:15.118Z,86.31
2022-07-26T23:40:00.186Z,86.67
2022-07-26T23:42:45.147Z,87.23
2022-07-26T23:45:30.382Z,87.69
2022-07-26T23:48:15.491Z,88.32
2022-07-26T23:51:00.504Z,88.75
2022-07-26T23:53:45.989Z,88.89
2022-07-26T23:56:30.892Z,89.35
2022-07-26T23:59:16.196Z,89.40
